sensor_id;sensor_type;location;lat;lon;timestamp;pressure;altitude;pressure_sealevel;temperature;humidity
50592;BME280;36548;50.506;30.834;2023-08-30T00:00:49;99404.64;;;26.43;59.68
50592;BME280;36548;50.506;30.834;2023-08-30T00:01:59;99415.25;;;26.40;59.76
50592;BME280;36548;50.506;30.834;2023-08-30T00:03:08;99424.33;;;26.40;59.83
50592;BME280;36548;50.506;30.834;2023-08-30T00:04:17;99414.64;;;26.37;59.81
50592;BME280;36548;50.506;30.834;2023-08-30T00:05:27;99411.03;;;26.37;59.96
50592;BME280;36548;50.506;30.834;2023-08-30T00:06:43;99409.92;;;26.45;60.06
50592;BME280;36548;50.506;30.834;2023-08-30T00:07:52;99423.31;;;26.34;60.00
50592;BME280;36548;50.506;30.834;2023-08-30T00:09:02;99417.20;;;26.32;59.94
50592;BME280;36548;50.506;30.834;2023-08-30T00:10:12;99420.19;;;26.31;60.12
50592;BME280;36548;50.506;30.834;2023-08-30T00:11:28;99418.83;;;26.40;60.08
50592;BME280;36548;50.506;30.834;2023-08-30T00:12:39;99417.66;;;26.29;60.15
50592;BME280;36548;50.506;30.834;2023-08-30T00:13:48;99418.95;;;26.27;60.26
50592;BME280;36548;50.506;30.834;2023-08-30T00:15:05;99412.31;;;26.34;60.36
50592;BME280;36548;50.506;30.834;2023-08-30T00:16:15;99416.01;;;26.22;60.45
50592;BME280;36548;50.506;30.834;2023-08-30T00:17:32;99414.46;;;26.32;60.40
50592;BME280;36548;50.506;30.834;2023-08-30T00:18:41;99425.31;;;26.20;60.55
50592;BME280;36548;50.506;30.834;2023-08-30T00:19:56;99419.55;;;26.29;60.68
50592;BME280;36548;50.506;30.834;2023-08-30T00:21:06;99412.84;;;26.18;60.76
50592;BME280;36548;50.506;30.834;2023-08-30T00:22:22;99414.27;;;26.27;60.85
50592;BME280;36548;50.506;30.834;2023-08-30T00:23:33;99410.55;;;26.15;60.92
50592;BME280;36548;50.506;30.834;2023-08-30T00:24:48;99418.53;;;26.23;61.12
50592;BME280;36548;50.506;30.834;2023-08-30T00:25:57;99420.08;;;26.12;61.08
50592;BME280;36548;50.506;30.834;2023-08-30T00:27:12;99411.34;;;26.22;61.12
50592;BME280;36548;50.506;30.834;2023-08-30T00:28:21;99416.72;;;26.10;61.04
50592;BME280;36548;50.506;30.834;2023-08-30T00:29:37;99412.66;;;26.19;61.29
50592;BME280;36548;50.506;30.834;2023-08-30T00:30:45;99418.23;;;26.06;61.18
50592;BME280;36548;50.506;30.834;2023-08-30T00:32:00;99417.74;;;26.16;61.31
50592;BME280;36548;50.506;30.834;2023-08-30T00:33:09;99415.70;;;26.05;61.45
50592;BME280;36548;50.506;30.834;2023-08-30T00:34:25;99426.45;;;26.13;61.32
50592;BME280;36548;50.506;30.834;2023-08-30T00:35:35;99417.17;;;26.00;61.43
50592;BME280;36548;50.506;30.834;2023-08-30T00:36:45;99421.81;;;26.00;61.41
50592;BME280;36548;50.506;30.834;2023-08-30T00:38:01;99416.95;;;26.09;61.55
50592;BME280;36548;50.506;30.834;2023-08-30T00:39:11;99418.45;;;25.98;61.50
50592;BME280;36548;50.506;30.834;2023-08-30T00:40:23;99423.31;;;25.96;61.58
50592;BME280;36548;50.506;30.834;2023-08-30T00:41:39;99422.48;;;26.02;61.78
50592;BME280;36548;50.506;30.834;2023-08-30T00:42:49;99431.18;;;25.92;61.67
50592;BME280;36548;50.506;30.834;2023-08-30T00:44:05;99428.17;;;26.00;61.87
50592;BME280;36548;50.506;30.834;2023-08-30T00:45:14;99434.38;;;25.89;61.99
50592;BME280;36548;50.506;30.834;2023-08-30T00:46:31;99428.63;;;25.97;62.02
50592;BME280;36548;50.506;30.834;2023-08-30T00:47:42;99440.29;;;25.86;62.06
50592;BME280;36548;50.506;30.834;2023-08-30T00:48:52;99429.30;;;25.86;62.13
50592;BME280;36548;50.506;30.834;2023-08-30T00:50:02;99438.63;;;25.85;62.11
50592;BME280;36548;50.506;30.834;2023-08-30T00:51:20;99433.92;;;25.92;62.33
50592;BME280;36548;50.506;30.834;2023-08-30T00:52:29;99439.27;;;25.80;62.51
50592;BME280;36548;50.506;30.834;2023-08-30T00:53:39;99433.77;;;25.80;62.27
50592;BME280;36548;50.506;30.834;2023-08-30T00:54:55;99435.81;;;25.92;62.44
50592;BME280;36548;50.506;30.834;2023-08-30T00:56:04;99430.79;;;25.82;62.18
50592;BME280;36548;50.506;30.834;2023-08-30T00:57:19;99431.41;;;25.91;62.46
50592;BME280;36548;50.506;30.834;2023-08-30T00:58:29;99441.40;;;25.78;62.34
50592;BME280;36548;50.506;30.834;2023-08-30T00:59:39;99440.98;;;25.75;62.72
50592;BME280;36548;50.506;30.834;2023-08-30T01:00:56;99429.52;;;25.84;62.65
50592;BME280;36548;50.506;30.834;2023-08-30T01:02:08;99446.92;;;25.72;62.80
50592;BME280;36548;50.506;30.834;2023-08-30T01:03:19;99439.13;;;25.68;62.96
50592;BME280;36548;50.506;30.834;2023-08-30T01:04:32;99438.48;;;25.66;63.11
50592;BME280;36548;50.506;30.834;2023-08-30T01:05:47;99447.12;;;25.77;63.08
50592;BME280;36548;50.506;30.834;2023-08-30T01:06:56;99443.97;;;25.66;63.00
50592;BME280;36548;50.506;30.834;2023-08-30T01:08:14;99441.84;;;25.75;63.29
50592;BME280;36548;50.506;30.834;2023-08-30T01:09:24;99441.45;;;25.65;63.23
50592;BME280;36548;50.506;30.834;2023-08-30T01:11:19;99442.90;;;25.74;63.25
50592;BME280;36548;50.506;30.834;2023-08-30T01:12:40;99450.74;;;25.64;63.18
50592;BME280;36548;50.506;30.834;2023-08-30T01:14:10;99444.39;;;25.70;63.33
50592;BME280;36548;50.506;30.834;2023-08-30T01:15:20;99443.39;;;25.58;63.63
50592;BME280;36548;50.506;30.834;2023-08-30T01:16:36;99451.39;;;25.66;63.79
50592;BME280;36548;50.506;30.834;2023-08-30T01:17:52;99446.80;;;25.53;63.87
50592;BME280;36548;50.506;30.834;2023-08-30T01:20:37;99447.39;;;25.62;63.89
50592;BME280;36548;50.506;30.834;2023-08-30T01:26:44;99460.13;;;25.43;64.24
50592;BME280;36548;50.506;30.834;2023-08-30T01:28:02;99449.77;;;25.51;64.36
50592;BME280;36548;50.506;30.834;2023-08-30T01:29:16;99449.80;;;25.38;64.57
50592;BME280;36548;50.506;30.834;2023-08-30T01:30:34;99447.64;;;25.47;64.56
50592;BME280;36548;50.506;30.834;2023-08-30T01:31:47;99451.06;;;25.35;64.71
50592;BME280;36548;50.506;30.834;2023-08-30T01:33:04;99448.91;;;25.44;64.69
50592;BME280;36548;50.506;30.834;2023-08-30T01:34:14;99453.35;;;25.32;64.78
50592;BME280;36548;50.506;30.834;2023-08-30T01:35:24;99453.57;;;25.30;64.85
50592;BME280;36548;50.506;30.834;2023-08-30T01:36:47;99447.05;;;25.38;64.95
50592;BME280;36548;50.506;30.834;2023-08-30T01:37:56;99454.23;;;25.26;65.10
50592;BME280;36548;50.506;30.834;2023-08-30T01:39:13;99446.01;;;25.32;65.21
50592;BME280;36548;50.506;30.834;2023-08-30T01:40:24;99447.25;;;25.23;65.18
50592;BME280;36548;50.506;30.834;2023-08-30T01:41:41;99453.35;;;25.32;65.30
50592;BME280;36548;50.506;30.834;2023-08-30T01:42:51;99456.98;;;25.19;65.34
50592;BME280;36548;50.506;30.834;2023-08-30T01:44:08;99453.17;;;25.27;65.60
50592;BME280;36548;50.506;30.834;2023-08-30T01:45:20;99449.83;;;25.11;65.70
50592;BME280;36548;50.506;30.834;2023-08-30T01:46:33;99453.63;;;25.10;65.83
50592;BME280;36548;50.506;30.834;2023-08-30T01:47:45;99453.84;;;25.09;65.87
50592;BME280;36548;50.506;30.834;2023-08-30T01:49:02;99451.70;;;25.17;65.97
50592;BME280;36548;50.506;30.834;2023-08-30T01:50:13;99458.91;;;25.05;66.04
50592;BME280;36548;50.506;30.834;2023-08-30T01:51:31;99448.75;;;25.12;66.15
50592;BME280;36548;50.506;30.834;2023-08-30T01:52:44;99457.42;;;25.02;66.17
50592;BME280;36548;50.506;30.834;2023-08-30T01:54:00;99451.09;;;25.09;66.18
50592;BME280;36548;50.506;30.834;2023-08-30T01:55:13;99451.94;;;24.96;66.36
50592;BME280;36548;50.506;30.834;2023-08-30T01:56:30;99451.94;;;25.02;66.57
50592;BME280;36548;50.506;30.834;2023-08-30T01:57:39;99452.80;;;24.90;66.65
50592;BME280;36548;50.506;30.834;2023-08-30T01:58:56;99446.27;;;24.97;66.85
50592;BME280;36548;50.506;30.834;2023-08-30T02:00:07;99449.84;;;24.84;66.91
50592;BME280;36548;50.506;30.834;2023-08-30T02:01:22;99447.74;;;24.93;67.13
50592;BME280;36548;50.506;30.834;2023-08-30T02:02:33;99451.32;;;24.80;67.34
50592;BME280;36548;50.506;30.834;2023-08-30T02:03:44;99456.81;;;24.80;67.31
50592;BME280;36548;50.506;30.834;2023-08-30T02:05:00;99447.31;;;24.90;67.50
50592;BME280;36548;50.506;30.834;2023-08-30T02:06:26;99449.00;;;24.77;67.44
50592;BME280;36548;50.506;30.834;2023-08-30T02:07:57;99453.84;;;24.89;67.62
50592;BME280;36548;50.506;30.834;2023-08-30T02:09:17;99450.05;;;24.76;67.80
50592;BME280;36548;50.506;30.834;2023-08-30T02:10:36;99444.14;;;24.86;67.87
50592;BME280;36548;50.506;30.834;2023-08-30T02:11:47;99454.06;;;24.74;67.91
50592;BME280;36548;50.506;30.834;2023-08-30T02:13:00;99450.48;;;24.73;68.14
50592;BME280;36548;50.506;30.834;2023-08-30T02:14:20;99447.09;;;24.84;68.09
50592;BME280;36548;50.506;30.834;2023-08-30T02:15:32;99451.53;;;24.72;68.12
50592;BME280;36548;50.506;30.834;2023-08-30T02:16:48;99450.27;;;24.81;68.29
50592;BME280;36548;50.506;30.834;2023-08-30T02:18:01;99447.95;;;24.72;68.03
50592;BME280;36548;50.506;30.834;2023-08-30T02:19:16;99443.95;;;24.81;68.29
50592;BME280;36548;50.506;30.834;2023-08-30T02:20:29;99451.53;;;24.72;68.40
50592;BME280;36548;50.506;30.834;2023-08-30T02:21:40;99449.66;;;24.73;68.24
50592;BME280;36548;50.506;30.834;2023-08-30T02:23:15;99449.84;;;24.84;68.21
50592;BME280;36548;50.506;30.834;2023-08-30T02:24:24;99453.02;;;24.75;68.06
50592;BME280;36548;50.506;30.834;2023-08-30T02:25:59;99446.48;;;24.82;68.02
50592;BME280;36548;50.506;30.834;2023-08-30T02:27:09;99451.74;;;24.71;68.14
50592;BME280;36548;50.506;30.834;2023-08-30T02:28:26;99448.79;;;24.79;68.33
50592;BME280;36548;50.506;30.834;2023-08-30T02:29:34;99445.85;;;24.67;68.23
50592;BME280;36548;50.506;30.834;2023-08-30T02:30:45;99450.48;;;24.66;68.23
50592;BME280;36548;50.506;30.834;2023-08-30T02:32:00;99449.66;;;24.73;68.42
50592;BME280;36548;50.506;30.834;2023-08-30T02:33:09;99455.77;;;24.61;68.51
50592;BME280;36548;50.506;30.834;2023-08-30T02:34:24;99451.74;;;24.71;68.53
50592;BME280;36548;50.506;30.834;2023-08-30T02:35:33;99449.82;;;24.58;68.56
50592;BME280;36548;50.506;30.834;2023-08-30T02:36:48;99443.11;;;24.67;68.74
50592;BME280;36548;50.506;30.834;2023-08-30T02:37:57;99444.77;;;24.55;68.73
50592;BME280;36548;50.506;30.834;2023-08-30T02:39:13;99435.27;;;24.64;68.73
50592;BME280;36548;50.506;30.834;2023-08-30T02:40:24;99449.59;;;24.53;68.68
50592;BME280;36548;50.506;30.834;2023-08-30T02:41:39;99446.03;;;24.59;68.91
50592;BME280;36548;50.506;30.834;2023-08-30T02:42:49;99446.02;;;24.45;69.03
50592;BME280;36548;50.506;30.834;2023-08-30T02:44:04;99442.23;;;24.53;69.10
50592;BME280;36548;50.506;30.834;2023-08-30T02:45:13;99443.91;;;24.41;69.15
50592;BME280;36548;50.506;30.834;2023-08-30T02:46:30;99436.52;;;24.48;69.29
50592;BME280;36548;50.506;30.834;2023-08-30T02:47:39;99439.89;;;24.37;69.44
50592;BME280;36548;50.506;30.834;2023-08-30T02:48:55;99436.95;;;24.45;69.58
50592;BME280;36548;50.506;30.834;2023-08-30T02:50:06;99445.59;;;24.35;69.40
50592;BME280;36548;50.506;30.834;2023-08-30T02:51:22;99442.00;;;24.41;69.78
50592;BME280;36548;50.506;30.834;2023-08-30T02:52:32;99447.06;;;24.31;69.81
50592;BME280;36548;50.506;30.834;2023-08-30T02:53:42;99445.36;;;24.30;70.05
50592;BME280;36548;50.506;30.834;2023-08-30T02:54:51;99440.70;;;24.30;70.15
50592;BME280;36548;50.506;30.834;2023-08-30T02:56:02;99442.41;;;24.31;70.28
50592;BME280;36548;50.506;30.834;2023-08-30T02:57:18;99433.12;;;24.46;70.57
50592;BME280;36548;50.506;30.834;2023-08-30T02:58:27;99437.34;;;24.42;70.43
50592;BME280;36548;50.506;30.834;2023-08-30T02:59:43;99427.26;;;24.62;70.20
50592;BME280;36548;50.506;30.834;2023-08-30T03:00:53;99428.48;;;24.60;70.21
50592;BME280;36548;50.506;30.834;2023-08-30T03:02:09;99432.11;;;24.80;69.87
50592;BME280;36548;50.506;30.834;2023-08-30T03:03:18;99437.59;;;24.80;69.77
50592;BME280;36548;50.506;30.834;2023-08-30T03:04:27;99438.46;;;24.88;69.32
50592;BME280;36548;50.506;30.834;2023-08-30T03:05:45;99435.89;;;25.06;68.90
50592;BME280;36548;50.506;30.834;2023-08-30T03:06:56;99442.44;;;24.98;68.56
50592;BME280;36548;50.506;30.834;2023-08-30T03:08:11;99431.88;;;25.09;68.47
50592;BME280;36548;50.506;30.834;2023-08-30T03:09:21;99443.30;;;24.99;68.22
50592;BME280;36548;50.506;30.834;2023-08-30T03:10:37;99432.09;;;25.07;68.24
50592;BME280;36548;50.506;30.834;2023-08-30T03:11:46;99440.95;;;24.96;68.03
50592;BME280;36548;50.506;30.834;2023-08-30T03:12:55;99448.36;;;24.95;68.00
50592;BME280;36548;50.506;30.834;2023-08-30T03:14:11;99437.16;;;25.04;68.05
50592;BME280;36548;50.506;30.834;2023-08-30T03:15:21;99437.81;;;24.92;68.06
50592;BME280;36548;50.506;30.834;2023-08-30T03:16:30;99446.05;;;24.92;67.93
50592;BME280;36548;50.506;30.834;2023-08-30T03:17:39;99445.40;;;24.90;67.98
50592;BME280;36548;50.506;30.834;2023-08-30T03:18:58;99439.69;;;24.98;67.97
50592;BME280;36548;50.506;30.834;2023-08-30T03:20:07;99443.09;;;24.87;68.17
50592;BME280;36548;50.506;30.834;2023-08-30T03:21:16;99441.39;;;24.86;68.20
50592;BME280;36548;50.506;30.834;2023-08-30T03:22:51;99439.91;;;24.97;68.06
50592;BME280;36548;50.506;30.834;2023-08-30T03:24:00;99443.30;;;24.85;68.30
50592;BME280;36548;50.506;30.834;2023-08-30T03:25:15;99433.59;;;24.96;68.31
50592;BME280;36548;50.506;30.834;2023-08-30T03:26:25;99438.46;;;24.88;68.32
50592;BME280;36548;50.506;30.834;2023-08-30T03:27:43;99433.37;;;24.98;68.57
50592;BME280;36548;50.506;30.834;2023-08-30T03:28:51;99442.44;;;24.92;68.46
50592;BME280;36548;50.506;30.834;2023-08-30T03:30:02;99434.02;;;24.93;68.19
50592;BME280;36548;50.506;30.834;2023-08-30T03:31:16;99432.94;;;24.94;68.20
50592;BME280;36548;50.506;30.834;2023-08-30T03:32:32;99438.64;;;25.06;68.24
50592;BME280;36548;50.506;30.834;2023-08-30T03:33:42;99439.08;;;24.96;68.26
50592;BME280;36548;50.506;30.834;2023-08-30T03:34:58;99435.45;;;25.09;68.36
50592;BME280;36548;50.506;30.834;2023-08-30T03:36:09;99437.59;;;25.00;68.27
50592;BME280;36548;50.506;30.834;2023-08-30T03:37:25;99428.48;;;25.13;68.33
50592;BME280;36548;50.506;30.834;2023-08-30T03:38:34;99439.47;;;25.07;68.15
50592;BME280;36548;50.506;30.834;2023-08-30T03:39:49;99436.27;;;25.23;68.10
50592;BME280;36548;50.506;30.834;2023-08-30T03:40:59;99441.77;;;25.16;67.96
50592;BME280;36548;50.506;30.834;2023-08-30T03:42:15;99436.26;;;25.30;67.71
50592;BME280;36548;50.506;30.834;2023-08-30T03:43:25;99436.70;;;25.20;67.47
50592;BME280;36548;50.506;30.834;2023-08-30T03:44:41;99442.36;;;25.32;67.42
50592;BME280;36548;50.506;30.834;2023-08-30T03:45:50;99436.92;;;25.18;67.30
50592;BME280;36548;50.506;30.834;2023-08-30T03:47:00;99441.55;;;25.18;67.37
50592;BME280;36548;50.506;30.834;2023-08-30T03:48:17;99441.11;;;25.28;67.45
50592;BME280;36548;50.506;30.834;2023-08-30T03:49:28;99437.36;;;25.15;67.47
50592;BME280;36548;50.506;30.834;2023-08-30T03:50:44;99432.03;;;25.27;67.60
50592;BME280;36548;50.506;30.834;2023-08-30T03:51:54;99439.89;;;25.17;67.68
50592;BME280;36548;50.506;30.834;2023-08-30T03:53:10;99437.31;;;25.29;67.53
50592;BME280;36548;50.506;30.834;2023-08-30T03:54:19;99436.06;;;25.18;67.63
50592;BME280;36548;50.506;30.834;2023-08-30T03:55:35;99434.56;;;25.29;67.71
50592;BME280;36548;50.506;30.834;2023-08-30T03:56:45;99438.63;;;25.19;67.60
50592;BME280;36548;50.506;30.834;2023-08-30T03:58:00;99437.09;;;25.30;67.64
50592;BME280;36548;50.506;30.834;2023-08-30T03:59:11;99441.37;;;25.19;67.57
50592;BME280;36548;50.506;30.834;2023-08-30T04:00:27;99437.95;;;25.31;67.53
50592;BME280;36548;50.506;30.834;2023-08-30T04:01:37;99434.79;;;25.21;67.39
50592;BME280;36548;50.506;30.834;2023-08-30T04:02:48;99442.42;;;25.18;67.54
50592;BME280;36548;50.506;30.834;2023-08-30T04:04:04;99434.34;;;25.30;67.62
50592;BME280;36548;50.506;30.834;2023-08-30T04:05:14;99435.88;;;25.19;67.59
50592;BME280;36548;50.506;30.834;2023-08-30T04:06:30;99431.59;;;25.30;67.67
50592;BME280;36548;50.506;30.834;2023-08-30T04:07:41;99437.31;;;25.22;67.55
50592;BME280;36548;50.506;30.834;2023-08-30T04:08:52;99437.10;;;25.24;67.61
50592;BME280;36548;50.506;30.834;2023-08-30T04:10:08;99429.09;;;25.35;67.41
50592;BME280;36548;50.506;30.834;2023-08-30T04:11:21;99431.42;;;25.25;67.40
50592;BME280;36548;50.506;30.834;2023-08-30T04:12:37;99427.17;;;25.36;67.45
50592;BME280;36548;50.506;30.834;2023-08-30T04:13:46;99436.70;;;25.27;67.47
50592;BME280;36548;50.506;30.834;2023-08-30T04:14:55;99440.27;;;25.27;67.40
50592;BME280;36548;50.506;30.834;2023-08-30T04:16:05;99435.61;;;25.28;67.42
50592;BME280;36548;50.506;30.834;2023-08-30T04:17:20;99433.09;;;25.40;67.36
50592;BME280;36548;50.506;30.834;2023-08-30T04:18:30;99430.98;;;25.28;67.29
50592;BME280;36548;50.506;30.834;2023-08-30T04:19:46;99426.55;;;25.41;67.21
50592;BME280;36548;50.506;30.834;2023-08-30T04:20:57;99431.59;;;25.30;67.22
50592;BME280;36548;50.506;30.834;2023-08-30T04:22:07;99435.20;;;25.31;67.18
50592;BME280;36548;50.506;30.834;2023-08-30T04:23:17;99435.02;;;25.32;67.07
50592;BME280;36548;50.506;30.834;2023-08-30T04:24:34;99426.33;;;25.42;67.01
50592;BME280;36548;50.506;30.834;2023-08-30T04:25:44;99434.80;;;25.34;66.94
50592;BME280;36548;50.506;30.834;2023-08-30T04:27:00;99441.76;;;25.43;67.00
50592;BME280;36548;50.506;30.834;2023-08-30T04:28:09;99432.88;;;25.34;67.03
50592;BME280;36548;50.506;30.834;2023-08-30T04:29:18;99433.53;;;25.37;66.99
50592;BME280;36548;50.506;30.834;2023-08-30T04:30:28;99437.97;;;25.38;66.76
50592;BME280;36548;50.506;30.834;2023-08-30T04:31:44;99434.55;;;25.49;66.83
50592;BME280;36548;50.506;30.834;2023-08-30T04:32:54;99442.38;;;25.39;66.82
50592;BME280;36548;50.506;30.834;2023-08-30T04:34:09;99433.27;;;25.51;66.76
50592;BME280;36548;50.506;30.834;2023-08-30T04:35:19;99437.31;;;25.42;66.79
50592;BME280;36548;50.506;30.834;2023-08-30T04:36:36;99436.63;;;25.53;66.66
50592;BME280;36548;50.506;30.834;2023-08-30T04:37:47;99439.01;;;25.43;66.66
50592;BME280;36548;50.506;30.834;2023-08-30T04:38:57;99436.04;;;25.45;66.66
50592;BME280;36548;50.506;30.834;2023-08-30T04:40:12;99433.66;;;25.55;66.63
50592;BME280;36548;50.506;30.834;2023-08-30T04:41:23;99439.63;;;25.45;66.60
50592;BME280;36548;50.506;30.834;2023-08-30T04:42:38;99439.80;;;25.57;66.62
50592;BME280;36548;50.506;30.834;2023-08-30T04:43:48;99446.81;;;25.46;66.63
50592;BME280;36548;50.506;30.834;2023-08-30T04:45:04;99434.70;;;25.61;66.52
50592;BME280;36548;50.506;30.834;2023-08-30T04:46:14;99438.77;;;25.51;66.69
50592;BME280;36548;50.506;30.834;2023-08-30T04:47:23;99433.05;;;25.53;66.48
50592;BME280;36548;50.506;30.834;2023-08-30T04:48:38;99439.56;;;25.65;66.58
50592;BME280;36548;50.506;30.834;2023-08-30T04:49:52;99437.89;;;25.58;66.46
50592;BME280;36548;50.506;30.834;2023-08-30T04:51:03;99433.00;;;25.60;66.09
50592;BME280;36548;50.506;30.834;2023-08-30T04:52:12;99435.75;;;25.60;65.93
50592;BME280;36548;50.506;30.834;2023-08-30T04:53:28;99430.45;;;25.65;66.47
50592;BME280;36548;50.506;30.834;2023-08-30T04:54:39;99434.94;;;25.52;66.61
50592;BME280;36548;50.506;30.834;2023-08-30T04:55:48;99436.86;;;25.52;66.28
50592;BME280;36548;50.506;30.834;2023-08-30T04:57:04;99434.70;;;25.61;66.37
50592;BME280;36548;50.506;30.834;2023-08-30T04:58:15;99435.60;;;25.48;66.46
50592;BME280;36548;50.506;30.834;2023-08-30T04:59:24;99429.46;;;25.46;66.48
50592;BME280;36548;50.506;30.834;2023-08-30T05:00:39;99433.05;;;25.53;66.65
50592;BME280;36548;50.506;30.834;2023-08-30T05:01:49;99433.31;;;25.38;66.58
50592;BME280;36548;50.506;30.834;2023-08-30T05:03:06;99437.70;;;25.46;66.76
50592;BME280;36548;50.506;30.834;2023-08-30T05:04:16;99437.77;;;25.32;66.69
50592;BME280;36548;50.506;30.834;2023-08-30T05:05:32;99435.39;;;25.43;66.74
50592;BME280;36548;50.506;30.834;2023-08-30T05:06:42;99438.17;;;25.29;66.99
50592;BME280;36548;50.506;30.834;2023-08-30T05:07:58;99439.41;;;25.40;67.18
50592;BME280;36548;50.506;30.834;2023-08-30T05:09:07;99444.28;;;25.31;67.37
50592;BME280;36548;50.506;30.834;2023-08-30T05:10:23;99432.21;;;25.46;67.11
50592;BME280;36548;50.506;30.834;2023-08-30T05:11:33;99438.80;;;25.38;67.19
50592;BME280;36548;50.506;30.834;2023-08-30T05:12:43;99433.70;;;25.42;67.10
50592;BME280;36548;50.506;30.834;2023-08-30T05:14:02;99434.92;;;25.59;66.92
50592;BME280;36548;50.506;30.834;2023-08-30T05:15:11;99431.36;;;25.52;66.85
50592;BME280;36548;50.506;30.834;2023-08-30T05:16:27;99431.70;;;25.69;67.00
50592;BME280;36548;50.506;30.834;2023-08-30T05:17:37;99441.45;;;25.65;67.09
50592;BME280;36548;50.506;30.834;2023-08-30T05:18:52;99425.94;;;25.84;66.55
50592;BME280;36548;50.506;30.834;2023-08-30T05:20:01;99434.84;;;25.79;66.23
50592;BME280;36548;50.506;30.834;2023-08-30T05:21:17;99431.38;;;25.97;65.79
50592;BME280;36548;50.506;30.834;2023-08-30T05:22:26;99440.48;;;25.91;65.55
50592;BME280;36548;50.506;30.834;2023-08-30T05:23:41;99436.20;;;26.09;65.32
50592;BME280;36548;50.506;30.834;2023-08-30T05:24:51;99436.62;;;26.06;65.29
50592;BME280;36548;50.506;30.834;2023-08-30T05:26:11;99445.36;;;26.28;65.17
50592;BME280;36548;50.506;30.834;2023-08-30T05:27:24;99441.56;;;26.29;64.88
50592;BME280;36548;50.506;30.834;2023-08-30T05:28:59;99437.27;;;26.65;64.45
50592;BME280;36548;50.506;30.834;2023-08-30T05:30:13;99437.67;;;26.68;63.84
50592;BME280;36548;50.506;30.834;2023-08-30T05:31:22;99439.27;;;26.83;63.25
50592;BME280;36548;50.506;30.834;2023-08-30T05:32:49;99446.17;;;26.92;62.74
50592;BME280;36548;50.506;30.834;2023-08-30T05:33:59;99443.97;;;27.01;62.02
50592;BME280;36548;50.506;30.834;2023-08-30T05:35:11;99445.59;;;27.09;61.94
50592;BME280;36548;50.506;30.834;2023-08-30T05:36:26;99443.09;;;27.26;61.44
50592;BME280;36548;50.506;30.834;2023-08-30T05:37:43;99449.30;;;27.21;61.12
50592;BME280;36548;50.506;30.834;2023-08-30T05:38:59;99434.25;;;27.42;60.51
50592;BME280;36548;50.506;30.834;2023-08-30T05:40:14;99442.52;;;27.42;60.29
50592;BME280;36548;50.506;30.834;2023-08-30T05:41:32;99434.78;;;27.69;59.78
50592;BME280;36548;50.506;30.834;2023-08-30T05:42:42;99441.95;;;27.70;59.59
50592;BME280;36548;50.506;30.834;2023-08-30T05:44:17;99432.05;;;28.00;58.76
50592;BME280;36548;50.506;30.834;2023-08-30T05:45:26;99440.70;;;28.03;59.02
50592;BME280;36548;50.506;30.834;2023-08-30T05:46:41;99430.72;;;28.33;58.19
50592;BME280;36548;50.506;30.834;2023-08-30T05:47:51;99433.14;;;28.41;58.21
50592;BME280;36548;50.506;30.834;2023-08-30T05:49:00;99433.91;;;28.60;57.16
50592;BME280;36548;50.506;30.834;2023-08-30T05:50:18;99428.33;;;28.90;56.47
50592;BME280;36548;50.506;30.834;2023-08-30T05:51:29;99425.66;;;28.96;56.10
50592;BME280;36548;50.506;30.834;2023-08-30T05:52:45;99426.02;;;29.23;54.98
50592;BME280;36548;50.506;30.834;2023-08-30T05:53:54;99433.72;;;29.21;54.45
50592;BME280;36548;50.506;30.834;2023-08-30T05:55:04;99434.80;;;29.32;54.27
50592;BME280;36548;50.506;30.834;2023-08-30T05:56:20;99422.86;;;29.55;53.68
50592;BME280;36548;50.506;30.834;2023-08-30T05:57:30;99427.31;;;29.56;53.39
50592;BME280;36548;50.506;30.834;2023-08-30T05:58:42;99421.16;;;29.66;52.39
50592;BME280;36548;50.506;30.834;2023-08-30T05:59:57;99426.03;;;29.87;52.25
50592;BME280;36548;50.506;30.834;2023-08-30T06:01:06;99430.37;;;29.83;51.79
50592;BME280;36548;50.506;30.834;2023-08-30T06:02:22;99424.05;;;30.00;51.42
50592;BME280;36548;50.506;30.834;2023-08-30T06:03:32;99424.23;;;29.93;50.91
50592;BME280;36548;50.506;30.834;2023-08-30T06:04:42;99425.16;;;29.99;50.98
50592;BME280;36548;50.506;30.834;2023-08-30T06:05:58;99422.75;;;30.19;50.58
50592;BME280;36548;50.506;30.834;2023-08-30T06:07:08;99418.58;;;30.17;50.21
50592;BME280;36548;50.506;30.834;2023-08-30T06:08:23;99429.99;;;30.37;49.46
50592;BME280;36548;50.506;30.834;2023-08-30T06:09:32;99421.94;;;30.36;49.88
50592;BME280;36548;50.506;30.834;2023-08-30T06:10:48;99422.94;;;30.58;48.83
50592;BME280;36548;50.506;30.834;2023-08-30T06:11:57;99425.86;;;30.52;48.84
50592;BME280;36548;50.506;30.834;2023-08-30T06:13:12;99420.00;;;30.65;48.80
50592;BME280;36548;50.506;30.834;2023-08-30T06:14:22;99426.53;;;30.59;48.27
50592;BME280;36548;50.506;30.834;2023-08-30T06:15:58;99412.19;;;30.79;48.79
50592;BME280;36548;50.506;30.834;2023-08-30T06:17:08;99422.16;;;30.80;48.43
50592;BME280;36548;50.506;30.834;2023-08-30T06:18:23;99424.67;;;30.99;47.88
50592;BME280;36548;50.506;30.834;2023-08-30T06:19:32;99428.19;;;30.94;47.36
50592;BME280;36548;50.506;30.834;2023-08-30T06:20:49;99423.75;;;31.10;47.19
50592;BME280;36548;50.506;30.834;2023-08-30T06:21:57;99422.59;;;31.06;46.94
50592;BME280;36548;50.506;30.834;2023-08-30T06:23:13;99422.55;;;31.23;46.61
50592;BME280;36548;50.506;30.834;2023-08-30T06:24:24;99426.66;;;31.20;46.67
50592;BME280;36548;50.506;30.834;2023-08-30T06:25:39;99417.20;;;31.38;46.35
50592;BME280;36548;50.506;30.834;2023-08-30T06:26:48;99429.91;;;31.34;46.39
50592;BME280;36548;50.506;30.834;2023-08-30T06:28:05;99423.91;;;31.42;45.80
50592;BME280;36548;50.506;30.834;2023-08-30T06:29:14;99428.17;;;31.28;45.57
50592;BME280;36548;50.506;30.834;2023-08-30T06:30:24;99429.17;;;31.22;45.40